Time;durP1;ratioP1;P1;durP2;ratioP2;P2;SDS_P1;SDS_P2;PMS_P1;PMS_P2;Temp;Humidity;BMP_temperature;BMP_pressure;BME280_temperature;BME280_humidity;BME280_pressure;Samples;Min_cycle;Max_cycle;Signal;HPM_P1;HPM_P2
2023/06/01 00:01:51;;;;;;;13.85;5.22;;;;;;;15.43;nan;100689.91;5059415;28;20042;-73
2023/06/01 00:04:17;;;;;;;16.60;5.40;;;;;;;15.12;nan;100651.66;5058552;28;20021;-72
2023/06/01 00:06:43;;;;;;;12.95;4.90;;;;;;;15.31;nan;100687.41;5059864;28;20098;-73
2023/06/01 00:09:08;;;;;;;10.00;5.10;;;;;;;15.31;nan;100687.41;5061654;28;20017;-73
2023/06/01 00:11:34;;;;;;;9.85;5.10;;;;;;;15.29;nan;100686.06;5061089;28;20025;-74
2023/06/01 00:14:00;;;;;;;14.15;5.18;;;;;;;15.18;nan;100669.25;5057925;28;20036;-75
2023/06/01 00:16:25;;;;;;;10.98;5.20;;;;;;;15.14;nan;100672.63;5059522;28;20029;-73
2023/06/01 00:18:52;;;;;;;13.73;5.40;;;;;;;15.21;nan;100678.53;5060247;28;20028;-73
2023/06/01 00:21:18;;;;;;;9.75;5.03;;;;;;;15.25;nan;100687.59;5040033;28;20115;-73
2023/06/01 00:23:44;;;;;;;9.07;5.50;;;;;;;15.15;nan;100671.56;5059852;28;20108;-73
2023/06/01 00:26:10;;;;;;;12.05;5.30;;;;;;;15.18;nan;100674.53;5059683;28;20111;-71
2023/06/01 00:28:35;;;;;;;8.68;5.70;;;;;;;15.20;nan;100675.06;5056798;28;20382;-71
2023/06/01 00:31:01;;;;;;;15.32;6.10;;;;;;;15.07;nan;100660.34;5057781;28;20485;-71
2023/06/01 00:33:26;;;;;;;9.55;5.85;;;;;;;15.15;nan;100672.38;5058503;28;20040;-72
2023/06/01 00:35:52;;;;;;;10.18;5.25;;;;;;;15.18;nan;100677.19;5061891;28;20107;-71
2023/06/01 00:38:17;;;;;;;12.07;5.68;;;;;;;15.16;nan;100670.53;5060228;28;20029;-72
2023/06/01 00:40:43;;;;;;;10.30;5.68;;;;;;;15.12;nan;100670.22;5057803;28;20506;-71
2023/06/01 00:43:09;;;;;;;15.18;6.78;;;;;;;15.03;nan;100669.84;5059193;28;20104;-71
2023/06/01 00:45:35;;;;;;;11.20;5.72;;;;;;;15.01;nan;100671.97;5044077;28;20032;-70
2023/06/01 00:48:01;;;;;;;14.10;5.85;;;;;;;14.98;nan;100672.44;5059936;28;20035;-70
2023/06/01 00:50:26;;;;;;;13.40;5.90;;;;;;;15.00;nan;100677.50;5041931;28;20025;-69
2023/06/01 00:52:53;;;;;;;10.02;5.72;;;;;;;14.75;nan;100641.69;5060440;28;20473;-71
2023/06/01 00:55:20;;;;;;;12.38;5.90;;;;;;;14.81;nan;100669.84;5044282;28;20032;-71
2023/06/01 00:57:46;;;;;;;17.50;6.85;;;;;;;14.82;nan;100657.38;5043947;28;20029;-72
2023/06/01 01:00:12;;;;;;;10.48;6.00;;;;;;;14.86;nan;100663.81;5060613;28;20046;-71
2023/06/01 01:02:44;;;;;;;11.85;6.10;;;;;;;14.91;nan;100671.81;5060913;28;20467;-70
2023/06/01 01:05:10;;;;;;;9.57;6.20;;;;;;;14.91;nan;100668.38;5058941;28;20047;-70
2023/06/01 01:07:49;;;;;;;12.07;5.70;;;;;;;14.90;nan;100683.50;5061678;28;20039;-71
2023/06/01 01:10:14;;;;;;;13.98;5.78;;;;;;;14.88;nan;100667.81;5056369;28;20412;-70
2023/06/01 01:12:42;;;;;;;14.25;5.78;;;;;;;14.86;nan;100669.91;5040678;28;20032;-71
2023/06/01 01:15:21;;;;;;;15.10;6.13;;;;;;;14.75;nan;100651.47;5059626;28;20486;-72
2023/06/01 01:17:51;;;;;;;9.60;5.43;;;;;;;14.57;nan;100634.81;5056637;28;20040;-73
2023/06/01 01:20:26;;;;;;;16.10;5.68;;;;;;;14.81;nan;100674.34;5058848;28;20115;-74
2023/06/01 01:23:27;;;;;;;10.45;5.90;;;;;;;14.66;nan;100659.06;5057761;28;20442;-72
2023/06/01 01:26:12;;;;;;;13.20;5.18;;;;;;;14.74;nan;100673.72;5059488;28;20601;-73
2023/06/01 01:28:37;;;;;;;8.05;5.22;;;;;;;14.71;nan;100661.78;5060357;28;20162;-73
2023/06/01 01:31:05;;;;;;;9.93;5.50;;;;;;;14.63;nan;100655.06;5059094;28;20115;-73
2023/06/01 01:33:36;;;;;;;9.80;5.40;;;;;;;14.58;nan;100649.69;5055746;28;20024;-73
2023/06/01 01:36:02;;;;;;;11.63;5.70;;;;;;;14.51;nan;100646.38;5056715;28;20027;-72
2023/06/01 01:38:27;;;;;;;10.68;5.45;;;;;;;14.52;nan;100652.47;5059683;28;20027;-73
2023/06/01 01:40:53;;;;;;;13.13;5.90;;;;;;;14.35;nan;100631.31;5058287;28;20028;-74
2023/06/01 01:43:19;;;;;;;10.25;5.95;;;;;;;14.46;nan;100649.78;5047078;28;20025;-72
2023/06/01 01:45:51;;;;;;;8.68;5.45;;;;;;;14.43;nan;100649.44;5059001;28;20039;-73
2023/06/01 01:48:27;;;;;;;10.07;5.72;;;;;;;14.40;nan;100652.59;5059069;28;20025;-73
2023/06/01 01:50:58;;;;;;;10.98;5.80;;;;;;;14.26;nan;100631.72;5056933;28;20074;-72
2023/06/01 01:53:26;;;;;;;14.13;5.80;;;;;;;14.35;nan;100649.88;5057767;28;20502;-71
2023/06/01 01:55:52;;;;;;;9.13;5.28;;;;;;;14.19;nan;100638.25;5057751;28;20060;-72
2023/06/01 01:58:18;;;;;;;10.50;6.13;;;;;;;14.09;nan;100628.31;5048615;28;20044;-72
2023/06/01 02:00:44;;;;;;;10.65;6.25;;;;;;;14.23;nan;100656.06;5058259;28;20020;-72
2023/06/01 02:03:17;;;;;;;12.30;5.88;;;;;;;14.25;nan;100653.19;5058608;28;20864;-73
2023/06/01 02:05:42;;;;;;;10.63;5.65;;;;;;;14.05;nan;100632.47;5057392;28;20028;-73
2023/06/01 02:08:08;;;;;;;14.73;5.95;;;;;;;14.12;nan;100640.25;5058477;28;20565;-72
2023/06/01 02:10:33;;;;;;;11.85;5.53;;;;;;;14.13;nan;100647.97;5061307;28;20029;-72
2023/06/01 02:12:59;;;;;;;14.95;6.32;;;;;;;14.06;nan;100635.94;5056798;28;20735;-72
2023/06/01 02:15:25;;;;;;;13.45;6.30;;;;;;;14.08;nan;100645.25;5048280;28;20028;-72
2023/06/01 02:17:51;;;;;;;12.43;5.82;;;;;;;14.08;nan;100650.53;5056134;28;20394;-70
2023/06/01 02:20:17;;;;;;;9.35;5.82;;;;;;;14.11;nan;100655.34;5057935;28;20366;-73
2023/06/01 02:22:42;;;;;;;10.07;5.53;;;;;;;13.98;nan;100635.31;5055453;28;20037;-72
2023/06/01 02:25:08;;;;;;;14.27;5.82;;;;;;;14.01;nan;100652.56;5043061;28;20041;-72
2023/06/01 02:27:33;;;;;;;10.88;5.93;;;;;;;13.97;nan;100648.78;5059355;28;20409;-71
2023/06/01 02:29:59;;;;;;;10.02;5.78;;;;;;;13.88;nan;100631.69;5047255;28;20103;-72
2023/06/01 02:32:25;;;;;;;8.75;5.40;;;;;;;13.89;nan;100638.59;5057464;28;20032;-72
2023/06/01 02:34:50;;;;;;;8.82;5.97;;;;;;;13.96;nan;100649.84;5057327;28;20099;-72
2023/06/01 02:37:16;;;;;;;10.45;5.63;;;;;;;13.78;nan;100640.25;5055556;28;20478;-73
2023/06/01 02:39:42;;;;;;;14.95;6.43;;;;;;;13.73;nan;100648.91;5060067;28;20024;-73
2023/06/01 02:42:07;;;;;;;12.60;6.40;;;;;;;13.72;nan;100638.56;5057652;28;20039;-72
2023/06/01 02:44:33;;;;;;;16.65;6.28;;;;;;;13.71;nan;100640.41;5059609;28;20491;-73
2023/06/01 02:46:58;;;;;;;16.17;7.18;;;;;;;13.78;nan;100662.22;5053478;28;20032;-72
2023/06/01 02:49:23;;;;;;;9.70;6.30;;;;;;;13.79;nan;100655.91;5058813;28;20059;-73
2023/06/01 02:51:49;;;;;;;15.15;7.15;;;;;;;13.77;nan;100655.34;5057492;28;20025;-72
2023/06/01 02:54:14;;;;;;;16.15;6.45;;;;;;;13.78;nan;100654.28;5036677;28;20115;-71
2023/06/01 02:56:40;;;;;;;15.05;6.88;;;;;;;13.75;nan;100653.97;5056740;28;20045;-72
2023/06/01 02:59:06;;;;;;;18.02;6.35;;;;;;;13.69;nan;100641.69;5042177;28;20035;-72
2023/06/01 03:01:35;;;;;;;17.38;7.78;;;;;;;13.78;nan;100661.44;5057012;28;20033;-73
2023/06/01 03:04:04;;;;;;;11.98;6.25;;;;;;;13.79;nan;100670.97;5056447;28;20025;-73
2023/06/01 03:06:31;;;;;;;15.73;6.75;;;;;;;13.54;nan;100626.38;5054831;28;20039;-72
2023/06/01 03:08:58;;;;;;;13.45;6.47;;;;;;;13.72;nan;100654.44;5053300;28;20089;-71
2023/06/01 03:11:23;;;;;;;14.25;6.78;;;;;;;13.71;nan;100656.28;5056262;28;20027;-73
2023/06/01 03:13:50;;;;;;;11.13;6.25;;;;;;;13.86;nan;100671.63;5056773;28;20024;-72
2023/06/01 03:16:16;;;;;;;17.63;6.50;;;;;;;13.79;nan;100647.97;5057859;28;20103;-73
2023/06/01 03:18:41;;;;;;;10.68;6.60;;;;;;;13.92;nan;100659.28;5041643;28;20178;-73
2023/06/01 03:21:07;;;;;;;15.57;6.50;;;;;;;13.90;nan;100654.22;5057183;28;20830;-73
2023/06/01 03:23:32;;;;;;;11.65;6.95;;;;;;;13.95;nan;100658.78;5058634;28;20041;-73
2023/06/01 03:25:58;;;;;;;13.98;6.55;;;;;;;14.03;nan;100668.97;5055902;28;20054;-72
2023/06/01 03:28:23;;;;;;;23.85;6.88;;;;;;;13.94;nan;100655.34;5057493;28;20021;-73
2023/06/01 03:30:48;;;;;;;15.20;6.82;;;;;;;14.02;nan;100664.72;5045643;28;20024;-72
2023/06/01 03:33:14;;;;;;;15.35;6.03;;;;;;;14.00;nan;100664.97;5058027;28;20569;-73
2023/06/01 03:35:40;;;;;;;15.63;6.32;;;;;;;13.91;nan;100636.50;5056149;28;20025;-74
2023/06/01 03:38:05;;;;;;;11.93;6.25;;;;;;;14.06;nan;100657.91;5059460;28;20103;-72
2023/06/01 03:40:31;;;;;;;13.27;6.68;;;;;;;14.01;nan;100647.25;5055841;28;20028;-73
2023/06/01 03:42:56;;;;;;;12.18;6.40;;;;;;;13.85;nan;100635.63;5057093;28;20028;-72
2023/06/01 03:45:22;;;;;;;13.48;7.03;;;;;;;14.15;nan;100655.66;5058187;28;20039;-71
2023/06/01 03:47:47;;;;;;;15.57;6.45;;;;;;;;;;5054710;28;20020;-71
2023/06/01 03:50:12;;;;;;;11.63;6.57;;;;;;;;;;5059570;28;20462;-71
2023/06/01 03:52:37;;;;;;;13.03;5.97;;;;;;;;;;5057433;28;20276;-71
2023/06/01 03:55:13;;;;;;;21.92;6.63;;;;;;;;;;5055307;28;20037;-73
2023/06/01 03:57:38;;;;;;;11.48;6.35;;;;;;;;;;5058661;28;20040;-72
2023/06/01 04:00:17;;;;;;;10.55;6.70;;;;;;;;;;5057086;28;20031;-72
2023/06/01 04:02:48;;;;;;;15.75;8.40;;;;;;;;;;5056408;28;20047;-72
2023/06/01 04:05:16;;;;;;;17.55;7.30;;;;;;;;;;5047066;28;20150;-71
2023/06/01 04:07:42;;;;;;;16.45;7.72;;;;;;;;;;5039122;28;20123;-73
2023/06/01 04:10:07;;;;;;;13.65;7.53;;;;;;;;;;5047368;28;20513;-72
2023/06/01 04:12:32;;;;;;;12.63;6.80;;;;;;;;;;5056796;28;20036;-73
2023/06/01 04:14:58;;;;;;;14.47;6.50;;;;;;;;;;5056561;28;20036;-73
2023/06/01 04:17:23;;;;;;;10.53;6.50;;;;;;;;;;5054047;28;20017;-73
2023/06/01 04:19:48;;;;;;;9.87;6.40;;;;;;;;;;5055805;28;20042;-72
2023/06/01 04:22:13;;;;;;;13.20;7.03;;;;;;;;;;5057998;28;20280;-73
2023/06/01 04:24:39;;;;;;;13.37;6.60;;;;;;;;;;5054192;28;20035;-73
2023/06/01 04:27:04;;;;;;;11.25;5.95;;;;;;;;;;5053461;28;20087;-73
2023/06/01 04:29:29;;;;;;;14.73;6.40;;;;;;;;;;5057376;28;20056;-74
2023/06/01 04:31:55;;;;;;;10.13;6.37;;;;;;;;;;5044882;28;20028;-74
2023/06/01 04:34:21;;;;;;;8.55;5.88;;;;;;;;;;5056817;28;20274;-74
2023/06/01 04:36:51;;;;;;;13.40;6.35;;;;;;;15.02;nan;100659.50;5059165;28;20102;-73
2023/06/01 04:39:16;;;;;;;13.35;5.90;;;;;;;15.03;nan;100645.97;5055710;28;20032;-74
2023/06/01 04:41:41;;;;;;;8.98;6.10;;;;;;;15.05;nan;100651.03;5037612;28;20498;-73
2023/06/01 04:44:08;;;;;;;10.50;5.70;;;;;;;15.29;nan;100670.94;5057766;28;20035;-73
2023/06/01 04:46:35;;;;;;;11.07;5.93;;;;;;;15.34;nan;100664.88;5058983;28;20040;-72
2023/06/01 04:49:00;;;;;;;11.20;6.40;;;;;;;;;;5059456;28;20024;-71
2023/06/01 04:51:30;;;;;;;9.43;6.03;;;;;;;15.56;nan;100678.09;5063553;28;20039;-72
2023/06/01 04:53:56;;;;;;;9.70;5.72;;;;;;;15.48;nan;100646.72;5059051;28;20021;-72
2023/06/01 04:56:26;;;;;;;10.95;5.68;;;;;;;15.74;nan;100674.31;5044045;28;20071;-72
2023/06/01 04:58:55;;;;;;;14.27;5.90;;;;;;;;;;5040031;28;20029;-73
2023/06/01 05:01:25;;;;;;;9.85;5.50;;;;;;;;;;5040680;28;20025;-73
2023/06/01 05:03:51;;;;;;;11.30;4.82;;;;;;;;;;5035483;28;20467;-73
2023/06/01 05:06:16;;;;;;;9.70;5.20;;;;;;;;;;5041143;28;20108;-72
2023/06/01 05:08:42;;;;;;;12.40;5.67;;;;;;;;;;5039640;28;20132;-71
2023/06/01 05:11:08;;;;;;;11.03;6.17;;;;;;;;;;5037405;28;20286;-73
2023/06/01 05:13:36;;;;;;;15.77;6.00;;;;;;;;;;5039327;28;20133;-72
2023/06/01 05:16:05;;;;;;;13.70;6.20;;;;;;;;;;5040557;28;20017;-72
2023/06/01 05:18:31;;;;;;;12.00;5.60;;;;;;;;;;5040040;28;20025;-71
2023/06/01 05:20:56;;;;;;;9.75;5.53;;;;;;;;;;5040685;28;20055;-72
2023/06/01 05:23:21;;;;;;;15.33;5.50;;;;;;;;;;5041041;28;20364;-73
2023/06/01 05:25:47;;;;;;;7.55;5.40;;;;;;;;;;5039716;28;20282;-72
2023/06/01 05:28:12;;;;;;;10.53;5.50;;;;;;;;;;5040603;28;20044;-73
2023/06/01 05:30:37;;;;;;;6.67;5.30;;;;;;;;;;5041523;28;20629;-73
2023/06/01 05:33:03;;;;;;;8.77;5.07;;;;;;;;;;5037502;28;20033;-71
2023/06/01 05:35:28;;;;;;;9.27;5.13;;;;;;;;;;5039366;28;20680;-73
2023/06/01 05:37:53;;;;;;;9.35;4.97;;;;;;;;;;5039832;28;20499;-70
2023/06/01 05:40:19;;;;;;;7.97;4.57;;;;;;;;;;5041085;28;20382;-72
2023/06/01 05:42:44;;;;;;;9.77;4.90;;;;;;;;;;5037873;28;20036;-71
2023/06/01 05:45:09;;;;;;;15.03;5.37;;;;;;;;;;5036477;28;20715;-72
2023/06/01 05:47:34;;;;;;;12.70;5.50;;;;;;;;;;5040106;28;20036;-71
2023/06/01 05:50:00;;;;;;;19.53;5.40;;;;;;;16.99;nan;100617.13;5039897;28;20362;-73
2023/06/01 05:52:25;;;;;;;9.75;5.25;;;;;;;;;;5036624;28;20113;-72
2023/06/01 05:54:53;;;;;;;7.60;4.90;;;;;;;;;;5039322;28;20438;-71
2023/06/01 05:57:18;;;;;;;11.48;5.30;;;;;;;;;;5055199;28;20293;-70
2023/06/01 05:59:45;;;;;;;10.32;5.65;;;;;;;;;;5056282;28;20031;-71
2023/06/01 06:02:11;;;;;;;9.57;4.88;;;;;;;;;;5058867;28;20518;-72
2023/06/01 06:04:36;;;;;;;10.50;5.70;;;;;;;;;;5060052;28;20094;-72
2023/06/01 06:07:01;;;;;;;10.57;5.80;;;;;;;;;;5059162;28;20387;-73
2023/06/01 06:09:27;;;;;;;10.53;5.40;;;;;;;;;;5054146;28;20042;-72
2023/06/01 06:11:52;;;;;;;12.57;5.28;;;;;;;;;;5023884;28;20286;-73
2023/06/01 06:14:17;;;;;;;13.50;5.80;;;;;;;;;;5059124;28;20041;-73
2023/06/01 06:16:42;;;;;;;8.10;5.90;;;;;;;;;;5057242;28;20273;-72
2023/06/01 06:19:08;;;;;;;15.20;6.37;;;;;;;;;;5059251;28;20036;-73
2023/06/01 06:21:33;;;;;;;9.40;5.47;;;;;;;;;;5045749;28;20474;-72
2023/06/01 06:23:58;;;;;;;14.60;6.18;;;;;;;;;;5058569;28;20039;-72
2023/06/01 06:26:25;;;;;;;11.57;5.53;;;;;;;;;;5041695;28;20028;-72
2023/06/01 06:28:51;;;;;;;9.05;5.90;;;;;;;;;;5059057;28;20730;-72
2023/06/01 06:31:16;;;;;;;9.57;5.47;;;;;;;;;;5060266;28;20028;-71
2023/06/01 06:33:41;;;;;;;7.57;5.20;;;;;;;;;;5055870;28;20654;-72
2023/06/01 06:36:07;;;;;;;10.03;5.60;;;;;;;;;;5056763;28;20106;-73
2023/06/01 06:38:32;;;;;;;7.17;5.53;;;;;;;;;;5056006;28;20037;-73
2023/06/01 06:40:58;;;;;;;11.07;4.93;;;;;;;;;;5046911;28;20055;-73
2023/06/01 06:43:23;;;;;;;12.13;5.45;;;;;;;;;;5057391;28;20081;-72
2023/06/01 06:45:49;;;;;;;11.48;5.80;;;;;;;;;;5057274;28;20364;-71
2023/06/01 06:48:14;;;;;;;8.43;5.50;;;;;;;;;;5041975;28;20793;-71
2023/06/01 06:50:43;;;;;;;13.23;5.80;;;;;;;;;;5057852;28;20316;-72
2023/06/01 06:53:09;;;;;;;12.07;5.47;;;;;;;;;;5055946;28;20025;-73
2023/06/01 06:55:34;;;;;;;8.47;4.93;;;;;;;;;;5058099;28;20075;-74
2023/06/01 06:57:59;;;;;;;11.30;5.17;;;;;;;;;;5060838;28;20282;-74
2023/06/01 07:00:25;;;;;;;8.47;5.30;;;;;;;;;;5057090;28;20039;-74
2023/06/01 07:02:51;;;;;;;10.25;5.60;;;;;;;19.19;nan;100616.00;5059945;28;20036;-74
2023/06/01 07:05:16;;;;;;;8.27;5.10;;;;;;;19.25;nan;100622.88;5042003;28;20021;-73
2023/06/01 07:07:42;;;;;;;9.18;5.07;;;;;;;19.30;nan;100625.53;5053663;28;20035;-73
2023/06/01 07:10:07;;;;;;;9.10;5.00;;;;;;;;;;5059322;28;20194;-74
2023/06/01 07:12:33;;;;;;;11.05;4.78;;;;;;;;;;5058404;28;20036;-73
2023/06/01 07:14:59;;;;;;;11.73;5.30;;;;;;;19.24;nan;100575.91;5055535;28;20379;-75
2023/06/01 07:17:24;;;;;;;12.05;5.18;;;;;;;19.41;nan;100618.22;5057561;28;20699;-73
2023/06/01 07:19:49;;;;;;;15.40;5.03;;;;;;;;;;5057359;28;20024;-73
2023/06/01 07:22:16;;;;;;;7.30;5.23;;;;;;;19.57;nan;100649.09;5047779;28;20029;-73
2023/06/01 07:24:42;;;;;;;11.20;4.75;;;;;;;;;;5044848;28;20025;-73
2023/06/01 07:27:07;;;;;;;7.07;4.65;;;;;;;19.69;nan;100609.50;5054144;28;20398;-74
2023/06/01 07:29:33;;;;;;;9.98;5.40;;;;;;;19.83;nan;100614.97;5059515;28;20028;-73
2023/06/01 07:31:59;;;;;;;8.75;5.03;;;;;;;;;;5058512;28;20047;-72
2023/06/01 07:34:25;;;;;;;7.03;5.15;;;;;;;19.88;nan;100620.28;5058228;28;20045;-72
2023/06/01 07:36:50;;;;;;;8.07;4.32;;;;;;;19.96;nan;100630.34;5058759;28;20074;-73
2023/06/01 07:39:16;;;;;;;5.53;4.40;;;;;;;20.09;nan;100617.41;5052823;28;20032;-72
2023/06/01 07:41:44;;;;;;;7.80;5.03;;;;;;;20.00;nan;100557.63;5054972;28;20540;-74
2023/06/01 07:44:10;;;;;;;8.50;5.20;;;;;;;20.25;nan;100610.81;5058575;28;20025;-74
2023/06/01 07:46:35;;;;;;;6.93;4.75;;;;;;;20.32;nan;100618.50;5058669;28;20029;-73
2023/06/01 07:49:03;;;;;;;7.55;4.25;;;;;;;20.45;nan;100631.19;5041421;28;20671;-73
2023/06/01 07:51:28;;;;;;;9.23;4.43;;;;;;;;;;5056792;28;20028;-74
2023/06/01 07:53:57;;;;;;;7.63;4.78;;;;;;;20.50;nan;100566.94;5057242;28;20054;-73
2023/06/01 07:56:26;;;;;;;8.50;4.95;;;;;;;20.64;nan;100627.78;5056937;28;20120;-73
2023/06/01 07:58:52;;;;;;;7.40;4.68;;;;;;;20.66;nan;100622.94;5039599;28;20032;-73
2023/06/01 08:01:18;;;;;;;7.03;4.68;;;;;;;20.73;nan;100601.97;5055338;28;20048;-74
2023/06/01 08:03:43;;;;;;;7.63;4.68;;;;;;;20.88;nan;100587.59;5055534;28;20129;-73
2023/06/01 08:06:09;;;;;;;6.82;4.13;;;;;;;20.99;nan;100616.59;5055942;28;20029;-73
2023/06/01 08:08:35;;;;;;;6.95;4.43;;;;;;;20.99;nan;100607.78;5055600;28;20540;-72
2023/06/01 08:11:00;;;;;;;8.43;4.57;;;;;;;21.10;nan;100608.44;5054820;28;20059;-73
2023/06/01 08:13:26;;;;;;;8.43;4.63;;;;;;;21.10;nan;100609.25;5056786;28;20049;-72
2023/06/01 08:15:52;;;;;;;14.82;4.25;;;;;;;21.13;nan;100618.56;5058786;28;20541;-72
2023/06/01 08:18:19;;;;;;;7.80;4.47;;;;;;;21.20;nan;100608.28;5062294;28;20032;-72
2023/06/01 08:20:45;;;;;;;5.22;4.22;;;;;;;21.28;nan;100615.66;5050201;28;20040;-72
2023/06/01 08:23:10;;;;;;;6.35;4.18;;;;;;;21.29;nan;100609.22;5049039;28;20135;-73
2023/06/01 08:25:36;;;;;;;6.63;4.00;;;;;;;21.29;nan;100565.59;5060001;28;20498;-72
2023/06/01 08:28:02;;;;;;;6.85;4.47;;;;;;;;;;5057200;28;20126;-72
2023/06/01 08:30:28;;;;;;;8.30;4.43;;;;;;;;;;5059048;28;20154;-73
2023/06/01 08:32:53;;;;;;;6.53;3.83;;;;;;;21.48;nan;100625.31;5041234;28;20119;-73
2023/06/01 08:35:19;;;;;;;9.05;4.75;;;;;;;;;;5060347;28;20065;-73
2023/06/01 08:37:46;;;;;;;6.80;3.90;;;;;;;21.59;nan;100621.34;5047120;28;20135;-73
2023/06/01 08:40:12;;;;;;;7.85;4.40;;;;;;;21.64;nan;100607.06;5061821;28;20036;-73
2023/06/01 08:42:57;;;;;;;7.78;4.22;;;;;;;21.67;nan;100601.16;5048079;28;20455;-72
2023/06/01 08:45:24;;;;;;;6.07;4.53;;;;;;;21.76;nan;100620.81;5057044;28;20033;-73
2023/06/01 08:47:52;;;;;;;8.90;4.22;;;;;;;;;;5042656;28;20024;-73
2023/06/01 08:50:17;;;;;;;6.18;4.38;;;;;;;21.87;nan;100614.19;5060416;28;20355;-73
2023/06/01 08:52:46;;;;;;;6.28;4.10;;;;;;;21.95;nan;100606.56;5046203;28;20056;-72
2023/06/01 08:55:13;;;;;;;7.00;4.28;;;;;;;22.00;nan;100601.88;5061077;28;20605;-72
2023/06/01 08:57:42;;;;;;;6.80;4.50;;;;;;;22.06;nan;100586.50;5060999;28;20045;-72
2023/06/01 09:00:17;;;;;;;5.50;3.80;;;;;;;;;;5057350;28;20495;-72
2023/06/01 09:02:43;;;;;;;6.65;4.03;;;;;;;22.22;nan;100590.53;5058695;28;20101;-72
2023/06/01 09:05:09;;;;;;;5.60;3.58;;;;;;;22.24;nan;100572.25;5058833;28;20039;-72
2023/06/01 09:07:34;;;;;;;4.85;3.45;;;;;;;;;;5059893;28;20072;-72
2023/06/01 09:10:00;;;;;;;6.00;4.10;;;;;;;22.30;nan;100587.13;5044085;28;20068;-72
2023/06/01 09:12:31;;;;;;;8.13;3.97;;;;;;;22.41;nan;100613.75;5057983;28;20375;-73
2023/06/01 09:15:06;;;;;;;5.40;3.80;;;;;;;22.47;nan;100569.63;5040182;28;20077;-72
2023/06/01 09:17:32;;;;;;;6.22;3.92;;;;;;;22.53;nan;100592.59;5058302;28;20550;-73
2023/06/01 09:19:58;;;;;;;5.80;4.20;;;;;;;22.54;nan;100601.44;5061481;28;20090;-74
2023/06/01 09:22:23;;;;;;;7.90;4.57;;;;;;;22.60;nan;100586.78;5064620;28;20425;-75
2023/06/01 09:24:58;;;;;;;7.60;4.35;;;;;;;22.63;nan;100605.78;5061706;28;20476;-74
2023/06/01 09:27:25;;;;;;;5.70;3.90;;;;;;;22.64;nan;100580.53;5058996;28;20470;-74
2023/06/01 09:30:01;;;;;;;4.88;4.25;;;;;;;22.71;nan;100588.97;5059599;28;20047;-73
2023/06/01 09:32:27;;;;;;;5.85;4.13;;;;;;;22.75;nan;100591.03;5042395;28;20082;-74
2023/06/01 09:34:54;;;;;;;5.80;3.80;;;;;;;22.73;nan;100594.81;5055677;28;20017;-73
2023/06/01 09:37:20;;;;;;;6.57;4.00;;;;;;;22.76;nan;100590.75;5042290;28;20308;-74
2023/06/01 09:39:45;;;;;;;6.38;4.20;;;;;;;22.89;nan;100584.56;5058902;28;20030;-72
2023/06/01 09:42:10;;;;;;;7.90;3.60;;;;;;;22.87;nan;100573.31;5055598;28;20028;-73
2023/06/01 09:44:39;;;;;;;5.50;3.70;;;;;;;22.97;nan;100591.09;5060082;28;20029;-73
2023/06/01 09:47:09;;;;;;;7.33;3.90;;;;;;;22.99;nan;100513.72;5037251;28;20028;-74
2023/06/01 09:49:38;;;;;;;4.68;3.63;;;;;;;23.07;nan;100547.13;5059294;28;20609;-74
2023/06/01 09:52:03;;;;;;;7.60;3.58;;;;;;;23.15;nan;100578.59;5057968;28;20028;-73
2023/06/01 09:54:33;;;;;;;7.30;5.28;;;;;;;23.22;nan;100519.09;5058745;28;20086;-72
2023/06/01 09:57:00;;;;;;;8.70;4.00;;;;;;;23.33;nan;100569.56;5044290;28;20049;-73
2023/06/01 09:59:28;;;;;;;5.28;3.80;;;;;;;23.39;nan;100561.38;5057442;28;20059;-74
2023/06/01 10:01:56;;;;;;;5.55;4.20;;;;;;;23.48;nan;100564.94;5056127;28;20759;-74
2023/06/01 10:04:26;;;;;;;6.60;4.40;;;;;;;23.53;nan;100570.16;5058464;28;20028;-74
2023/06/01 10:06:55;;;;;;;7.78;4.88;;;;;;;;;;5057840;28;20032;-74
2023/06/01 10:09:24;;;;;;;5.03;4.00;;;;;;;23.63;nan;100574.50;5057419;28;20032;-74
2023/06/01 10:11:53;;;;;;;7.38;4.07;;;;;;;23.64;nan;100566.13;5057071;28;20024;-73
2023/06/01 10:14:19;;;;;;;;;;;;;;;23.74;nan;100549.75;5058647;28;20036;-73
2023/06/01 10:16:45;;;;;;;5.60;4.05;;;;;;;23.82;nan;100580.47;5051997;28;19916;-74
2023/06/01 10:19:11;;;;;;;5.75;4.10;;;;;;;23.81;nan;100572.72;5040687;28;20031;-74
2023/06/01 10:21:39;;;;;;;6.50;4.38;;;;;;;23.87;nan;100558.84;5040759;28;20063;-73
2023/06/01 10:24:08;;;;;;;5.82;4.35;;;;;;;23.88;nan;100533.53;5055149;28;20049;-75
2023/06/01 10:26:37;;;;;;;;;;;;;;;24.02;nan;100565.69;5056327;28;20041;-74
2023/06/01 10:29:03;;;;;;;5.70;4.17;;;;;;;24.04;nan;100535.78;5060909;28;19928;-74
2023/06/01 10:31:32;;;;;;;6.95;4.70;;;;;;;24.12;nan;100551.94;5038799;28;20412;-73
2023/06/01 10:33:57;;;;;;;5.78;4.20;;;;;;;24.10;nan;100551.47;5044103;28;20048;-73
2023/06/01 10:36:23;;;;;;;5.93;4.90;;;;;;;24.19;nan;100478.84;5055962;28;20106;-71
2023/06/01 10:38:49;;;;;;;8.75;4.30;;;;;;;24.17;nan;100597.53;5055010;28;20029;-72
2023/06/01 10:41:31;;;;;;;8.65;4.68;;;;;;;24.24;nan;100534.41;5040419;28;20140;-72
2023/06/01 10:43:57;;;;;;;5.88;4.10;;;;;;;24.22;nan;100493.56;5055097;28;20598;-73
2023/06/01 10:46:40;;;;;;;6.75;3.80;;;;;;;24.32;nan;100477.13;5055057;28;20035;-72
2023/06/01 10:49:06;;;;;;;6.28;4.50;;;;;;;24.42;nan;100520.69;5057573;28;20048;-73
2023/06/01 10:51:32;;;;;;;9.48;4.45;;;;;;;24.44;nan;100531.13;5053517;28;20829;-73
2023/06/01 10:54:27;;;;;;;9.80;4.70;;;;;;;24.49;nan;100538.28;5056070;28;20025;-73
2023/06/01 10:57:17;;;;;;;6.85;4.28;;;;;;;24.54;nan;100535.44;5054157;28;20041;-72
2023/06/01 10:59:42;;;;;;;6.90;4.68;;;;;;;24.56;nan;100503.59;5056479;28;20056;-72
2023/06/01 11:02:09;;;;;;;5.65;4.35;;;;;;;24.61;nan;100498.88;5044662;28;20105;-73
2023/06/01 11:04:36;;;;;;;10.05;4.65;;;;;;;24.65;nan;100517.88;5055402;28;20029;-72
2023/06/01 11:07:38;;;;;;;6.97;4.32;;;;;;;24.66;nan;100484.44;5055065;28;20029;-72
2023/06/01 11:10:05;;;;;;;7.18;4.50;;;;;;;24.70;nan;100511.53;5054323;28;20024;-72
2023/06/01 11:13:10;;;;;;;4.72;4.00;;;;;;;24.76;nan;100500.28;5056674;28;20055;-69
2023/06/01 11:15:36;;;;;;;7.40;4.30;;;;;;;24.83;nan;100513.28;5051959;28;20025;-71
2023/06/01 11:18:41;;;;;;;5.72;4.50;;;;;;;24.89;nan;100479.66;5058390;28;20032;-71
2023/06/01 11:21:10;;;;;;;5.07;4.38;;;;;;;24.94;nan;100436.41;5054124;28;20086;-71
2023/06/01 11:23:38;;;;;;;5.55;4.25;;;;;;;24.99;nan;100479.31;5058115;28;20111;-71
2023/06/01 11:26:06;;;;;;;7.63;4.50;;;;;;;24.99;nan;100475.84;5059787;28;20413;-72
2023/06/01 11:28:32;;;;;;;9.83;4.40;;;;;;;24.97;nan;100467.28;5056106;28;20024;-72
2023/06/01 11:31:00;;;;;;;6.18;4.40;;;;;;;24.96;nan;100525.00;5055619;28;20281;-71
2023/06/01 11:33:28;;;;;;;6.63;4.50;;;;;;;25.03;nan;100460.63;5060223;28;20031;-70
2023/06/01 11:35:58;;;;;;;5.75;4.38;;;;;;;25.03;nan;100492.97;5053728;28;20037;-70
2023/06/01 11:38:23;;;;;;;9.85;4.38;;;;;;;25.18;nan;100453.97;5055693;28;20534;-70
2023/06/01 11:40:59;;;;;;;7.03;4.07;;;;;;;25.28;nan;100437.44;5054170;28;20056;-71
2023/06/01 11:43:30;;;;;;;7.50;4.20;;;;;;;25.45;nan;100440.06;5056797;28;20020;-71
2023/06/01 11:46:06;;;;;;;6.40;4.93;;;;;;;25.40;nan;100429.44;5053744;28;20024;-71
2023/06/01 11:48:33;;;;;;;7.18;4.43;;;;;;;25.45;nan;100463.53;5035848;28;20711;-71
2023/06/01 11:51:00;;;;;;;11.38;4.65;;;;;;;25.50;nan;100397.84;5055995;28;20028;-71
2023/06/01 11:53:26;;;;;;;9.23;4.75;;;;;;;25.60;nan;100430.63;5040514;28;20111;-71
2023/06/01 11:55:53;;;;;;;7.60;4.50;;;;;;;25.64;nan;100395.72;5055197;28;20132;-70
2023/06/01 11:58:26;;;;;;;6.95;4.28;;;;;;;25.70;nan;100399.03;5056438;28;20024;-72
2023/06/01 12:00:57;;;;;;;10.10;4.78;;;;;;;25.67;nan;100412.03;5057044;28;20051;-72
2023/06/01 12:03:26;;;;;;;5.70;4.60;;;;;;;25.65;nan;100427.75;5055186;28;20028;-71
2023/06/01 12:05:52;;;;;;;7.15;4.63;;;;;;;25.62;nan;100471.56;5037219;28;21015;-71
2023/06/01 12:08:23;;;;;;;5.32;4.05;;;;;;;25.65;nan;100462.03;5055801;28;20107;-72
2023/06/01 12:10:50;;;;;;;7.32;4.70;;;;;;;25.75;nan;100461.66;5054242;28;20675;-72
2023/06/01 12:13:20;;;;;;;12.23;4.30;;;;;;;25.79;nan;100448.31;5056710;28;20012;-72
2023/06/01 12:15:46;;;;;;;5.15;4.30;;;;;;;25.84;nan;100440.81;5056690;28;20107;-71
2023/06/01 12:18:12;;;;;;;8.02;4.53;;;;;;;25.86;nan;100454.03;5055203;28;20026;-71
2023/06/01 12:20:38;;;;;;;5.30;3.88;;;;;;;25.97;nan;100463.28;5057675;28;20037;-72
2023/06/01 12:23:09;;;;;;;6.85;4.22;;;;;;;26.04;nan;100455.47;5037570;28;20059;-73